Time;durP1;ratioP1;P1;durP2;ratioP2;P2;SDS_P1;SDS_P2;PMS_P1;PMS_P2;Temp;Humidity;BMP_temperature;BMP_pressure;BME280_temperature;BME280_humidity;BME280_pressure;Samples;Min_cycle;Max_cycle;Signal;HPM_P1;HPM_P2
2022/07/01 00:01:27;;;;;;;23.45;10.40;;;692.10;2432.00;;;;;;5093034;28;20564;-77
2022/07/01 00:03:53;;;;;;;22.13;9.88;;;692.10;2406.40;;;;;;5077157;28;20039;-77
2022/07/01 00:06:19;;;;;;;18.55;9.18;;;692.00;2355.20;;;;;;5079984;28;20385;-78
2022/07/01 00:08:45;;;;;;;13.02;7.43;;;692.00;2329.60;;;;;;5093251;28;20027;-77
2022/07/01 00:11:11;;;;;;;19.88;9.35;;;692.10;2304.00;;;;;;5080229;28;20433;-77
2022/07/01 00:13:37;;;;;;;19.00;9.13;;;691.70;2355.20;;;;;;5092913;28;20024;-78
2022/07/01 00:16:03;;;;;;;24.70;9.00;;;691.40;2432.00;;;;;;5092926;28;20020;-77
2022/07/01 00:18:30;;;;;;;22.73;9.88;;;691.60;2432.00;;;;;;5079523;28;20025;-78
2022/07/01 00:20:56;;;;;;;13.23;8.80;;;691.40;2355.20;;;;;;5089944;28;20030;-78
2022/07/01 00:23:22;;;;;;;18.23;8.48;;;691.40;2355.20;;;;;;5092722;28;20024;-77
2022/07/01 00:25:47;;;;;;;19.05;8.68;;;691.40;2355.20;;;;;;5092830;28;20450;-77
2022/07/01 00:28:13;;;;;;;20.05;9.32;;;691.20;2329.60;;;;;;5092632;28;20026;-78
2022/07/01 00:30:39;;;;;;;13.23;8.60;;;666.50;2355.20;;;;;;5072463;28;20020;-77
2022/07/01 00:33:05;;;;;;;17.67;8.43;;;666.30;2380.80;;;;;;5071521;28;20489;-77
2022/07/01 00:35:31;;;;;;;16.27;8.93;;;666.20;2380.80;;;;;;5091989;28;20035;-78
2022/07/01 00:37:57;;;;;;;17.42;9.63;;;666.20;2380.80;;;;;;5089634;28;20475;-77
2022/07/01 00:40:23;;;;;;;20.50;10.32;;;666.20;2406.40;;;;;;5092667;28;20035;-77
2022/07/01 00:42:49;;;;;;;20.00;8.55;;;665.90;2406.40;;;;;;5073219;28;20016;-77
2022/07/01 00:45:15;;;;;;;15.45;9.43;;;665.90;2432.00;;;;;;5092257;28;20144;-78
2022/07/01 00:47:42;;;;;;;18.17;9.15;;;665.60;2432.00;;;;;;5092233;28;20501;-77
2022/07/01 00:50:10;;;;;;;14.23;10.02;;;640.90;2432.00;;;;;;5092159;28;20043;-77
2022/07/01 00:52:37;;;;;;;16.55;8.82;;;640.90;2432.00;;;;;;5092528;28;20012;-77
2022/07/01 00:55:05;;;;;;;15.38;9.65;;;640.80;2432.00;;;;;;5092136;28;20027;-77
2022/07/01 00:57:33;;;;;;;14.45;9.32;;;665.80;2432.00;;;;;;5092383;28;20020;-78
2022/07/01 01:00:03;;;;;;;17.25;8.85;;;640.80;2432.00;;;;;;5089492;28;20035;-77
2022/07/01 01:02:28;;;;;;;23.20;9.57;;;640.60;2432.00;;;;;;5077130;28;20435;-77
2022/07/01 01:04:54;;;;;;;18.83;9.48;;;640.90;2432.00;;;;;;5073645;28;20020;-77
2022/07/01 01:07:20;;;;;;;18.08;9.75;;;640.90;2432.00;;;;;;5092130;28;20091;-77
2022/07/01 01:09:46;;;;;;;14.63;9.23;;;640.90;2432.00;;;;;;5076888;28;20547;-77
2022/07/01 01:12:13;;;;;;;20.63;9.23;;;640.80;2432.00;;;;;;5091885;28;20026;-77
2022/07/01 01:14:47;;;;;;;12.00;8.85;;;640.70;2432.00;;;;;;5074612;28;20111;-77
2022/07/01 01:17:14;;;;;;;13.63;9.20;;;640.70;2432.00;;;;;;5091893;28;20050;-77
2022/07/01 01:19:43;;;;;;;15.32;8.52;;;640.70;2432.00;;;;;;5074461;28;20056;-77
2022/07/01 01:22:10;;;;;;;14.95;8.65;;;640.90;2432.00;;;;;;5091820;28;20016;-77
2022/07/01 01:24:37;;;;;;;14.50;8.82;;;640.50;2432.00;;;;;;5091893;28;20099;-76
2022/07/01 01:27:04;;;;;;;16.52;9.30;;;640.60;2432.00;;;;;;5091818;28;20016;-77
2022/07/01 01:29:30;;;;;;;15.85;8.43;;;640.40;2432.00;;;;;;5091809;28;20016;-77
2022/07/01 01:31:56;;;;;;;13.38;9.63;;;640.40;2432.00;;;;;;5068859;28;20070;-77
2022/07/01 01:34:22;;;;;;;17.77;8.93;;;640.40;2432.00;;;;;;5091479;28;20028;-77
2022/07/01 01:36:48;;;;;;;14.25;9.63;;;640.20;2432.00;;;;;;5099990;28;20020;-78
2022/07/01 01:41:39;;;;;;;15.90;9.20;;;640.10;2432.00;;;;;;5093342;28;20023;-77
2022/07/01 01:44:05;;;;;;;16.30;9.48;;;640.10;2432.00;;;;;;5073332;28;20040;-77
2022/07/01 01:46:31;;;;;;;18.00;9.38;;;640.10;2432.00;;;;;;5078755;28;20486;-77
2022/07/01 01:48:57;;;;;;;17.35;9.70;;;640.00;2432.00;;;;;;5096166;28;20477;-77
2022/07/01 01:51:23;;;;;;;14.70;9.80;;;640.10;2432.00;;;;;;5074953;28;20481;-78
2022/07/01 01:53:49;;;;;;;17.65;9.82;;;640.00;2432.00;;;;;;5094673;28;20024;-77
2022/07/01 01:56:14;;;;;;;13.70;9.10;;;615.20;2432.00;;;;;;5095580;28;20016;-77
2022/07/01 01:58:42;;;;;;;20.40;9.30;;;615.30;2432.00;;;;;;5095732;28;20038;-77
2022/07/01 02:01:18;;;;;;;17.05;9.43;;;640.00;2432.00;;;;;;5078224;28;20019;-77
2022/07/01 02:03:46;;;;;;;22.60;9.40;;;640.10;2432.00;;;;;;5092992;28;20016;-77
2022/07/01 02:06:13;;;;;;;17.05;9.63;;;640.00;2432.00;;;;;;5095353;28;20016;-77
2022/07/01 02:08:40;;;;;;;15.07;9.23;;;640.00;2432.00;;;;;;5095504;28;20024;-77
2022/07/01 02:11:06;;;;;;;16.38;9.00;;;615.10;2432.00;;;;;;5076820;28;20024;-77
2022/07/01 02:13:32;;;;;;;15.25;9.48;;;615.20;2432.00;;;;;;5078827;28;20493;-76
2022/07/01 02:15:58;;;;;;;15.05;9.13;;;615.20;2432.00;;;;;;5095299;28;20036;-75
2022/07/01 02:18:24;;;;;;;13.48;8.45;;;640.00;2432.00;;;;;;5077747;28;20024;-76
2022/07/01 02:20:50;;;;;;;15.32;9.32;;;615.30;2432.00;;;;;;5095153;28;20074;-76
2022/07/01 02:23:15;;;;;;;16.95;9.38;;;615.30;2432.00;;;;;;5094943;28;20462;-77
2022/07/01 02:25:42;;;;;;;16.10;9.40;;;615.20;2432.00;;;;;;5095186;28;20066;-76
2022/07/01 02:28:08;;;;;;;14.88;8.30;;;615.10;2432.00;;;;;;5094890;28;20027;-77
2022/07/01 02:30:37;;;;;;;15.98;9.38;;;614.90;2432.00;;;;;;5095094;28;20077;-76
2022/07/01 02:33:05;;;;;;;18.30;8.93;;;614.90;2432.00;;;;;;5094913;28;20024;-77
2022/07/01 02:35:35;;;;;;;15.35;9.07;;;614.80;2432.00;;;;;;5095005;28;20474;-77
2022/07/01 02:38:02;;;;;;;14.70;8.82;;;614.80;2432.00;;;;;;5094615;28;20031;-77
2022/07/01 02:40:28;;;;;;;18.05;8.73;;;614.80;2432.00;;;;;;5078292;28;20107;-78
2022/07/01 02:42:54;;;;;;;14.23;8.75;;;614.80;2432.00;;;;;;5080535;28;20127;-77
2022/07/01 02:45:19;;;;;;;17.00;8.15;;;614.90;2432.00;;;;;;5088801;28;20438;-76
2022/07/01 02:47:45;;;;;;;16.30;8.60;;;614.90;2432.00;;;;;;5083275;28;20016;-76
2022/07/01 02:50:12;;;;;;;10.32;8.00;;;614.90;2432.00;;;;;;5084568;28;20387;-77
2022/07/01 02:52:40;;;;;;;13.45;8.07;;;615.00;2432.00;;;;;;5085396;28;20013;-77
2022/07/01 02:55:09;;;;;;;15.55;8.13;;;615.10;2432.00;;;;;;5083359;28;20024;-77
2022/07/01 02:57:35;;;;;;;13.23;8.50;;;615.10;2432.00;;;;;;5089521;28;20024;-77
2022/07/01 03:00:01;;;;;;;12.43;7.55;;;615.20;2432.00;;;;;;5068956;28;20048;-76
2022/07/01 03:02:27;;;;;;;16.45;8.43;;;615.20;2432.00;;;;;;5089058;28;20024;-77
2022/07/01 03:04:53;;;;;;;16.35;8.52;;;615.30;2432.00;;;;;;5089945;28;20470;-77
2022/07/01 03:07:20;;;;;;;14.43;8.20;;;615.10;2432.00;;;;;;5075764;28;20056;-77
2022/07/01 03:09:46;;;;;;;16.15;7.35;;;615.10;2432.00;;;;;;5083225;28;20016;-77
2022/07/01 03:12:27;;;;;;;13.57;8.20;;;615.10;2432.00;;;;;;5084457;28;20020;-77
2022/07/01 03:15:03;;;;;;;24.08;8.35;;;615.00;2432.00;;;;;;5067710;28;20452;-77
2022/07/01 03:17:31;;;;;;;13.80;7.55;;;615.10;2432.00;;;;;;5083174;28;20029;-77
2022/07/01 03:19:57;;;;;;;14.35;8.35;;;615.00;2432.00;;;;;;5065253;28;20036;-78
2022/07/01 03:22:28;;;;;;;18.70;7.82;;;615.00;2432.00;;;;;;5084942;28;20030;-76
2022/07/01 03:24:54;;;;;;;14.27;7.50;;;615.00;2432.00;;;;;;5083580;28;20577;-77
2022/07/01 03:27:21;;;;;;;16.67;7.90;;;615.00;2432.00;;;;;;5083173;28;20095;-77
2022/07/01 03:29:47;;;;;;;15.50;7.35;;;615.00;2432.00;;;;;;5084450;28;20046;-77
2022/07/01 03:32:13;;;;;;;16.45;8.13;;;615.00;2432.00;;;;;;5083590;28;20027;-78
2022/07/01 03:34:40;;;;;;;11.57;7.55;;;615.00;2432.00;;;;;;5070515;28;20024;-77
2022/07/01 03:37:08;;;;;;;17.27;7.75;;;615.00;2432.00;;;;;;5075051;28;20073;-76
2022/07/01 03:39:35;;;;;;;21.13;8.18;;;615.00;2432.00;;;;;;5093285;28;20066;-78
2022/07/01 03:42:02;;;;;;;19.40;9.30;;;615.00;2432.00;;;;;;5093785;28;20024;-77
2022/07/01 03:44:28;;;;;;;12.10;7.45;;;615.00;2432.00;;;;;;5093802;28;20044;-77
2022/07/01 03:46:54;;;;;;;14.73;8.80;;;615.00;2432.00;;;;;;5075358;28;20044;-78
2022/07/01 03:49:20;;;;;;;16.33;7.63;;;615.00;2432.00;;;;;;5097947;28;20057;-78
2022/07/01 03:51:46;;;;;;;16.45;8.40;;;615.00;2432.00;;;;;;5085285;28;20016;-77
2022/07/01 03:54:30;;;;;;;16.00;7.25;;;615.10;2432.00;;;;;;5093598;28;20028;-78
2022/07/01 03:57:07;;;;;;;21.40;8.20;;;615.10;2432.00;;;;;;5093840;28;20057;-77
2022/07/01 03:59:36;;;;;;;9.82;7.80;;;615.10;2432.00;;;;;;5093277;28;20111;-78
2022/07/01 04:02:03;;;;;;;14.65;7.78;;;615.10;2432.00;;;;;;5093709;28;20031;-78
2022/07/01 04:04:29;;;;;;;11.20;7.47;;;615.10;2432.00;;;;;;5072078;28;20041;-77
2022/07/01 04:06:58;;;;;;;15.00;8.05;;;615.00;2432.00;;;;;;5084222;28;20021;-78
2022/07/01 04:09:24;;;;;;;14.10;7.60;;;615.00;2432.00;;;;;;5079514;28;20035;-76
2022/07/01 04:11:52;;;;;;;10.10;8.10;;;615.20;2432.00;;;;;;5088455;28;20024;-77
2022/07/01 04:14:18;;;;;;;12.27;7.72;;;615.00;2432.00;;;;;;5093332;28;20026;-77
2022/07/01 04:16:45;;;;;;;15.55;7.47;;;615.10;2432.00;;;;;;5093271;28;20028;-77
2022/07/01 04:19:12;;;;;;;19.73;7.90;;;615.20;2432.00;;;;;;5093209;28;20039;-78
2022/07/01 04:24:24;;;;;;;12.35;7.28;;;640.00;2432.00;;;;;;5093129;28;20031;-78
2022/07/01 04:26:51;;;;;;;12.30;7.07;;;640.10;2432.00;;;;;;5074815;28;20020;-77
2022/07/01 04:29:18;;;;;;;14.73;6.93;;;640.10;2432.00;;;;;;5074801;28;20115;-77
2022/07/01 04:31:44;;;;;;;12.57;7.20;;;640.40;2432.00;;;;;;5085835;28;20024;-78
2022/07/01 04:34:11;;;;;;;13.40;7.43;;;640.30;2432.00;;;;;;5079752;28;20092;-77
2022/07/01 04:36:37;;;;;;;16.50;7.22;;;640.30;2432.00;;;;;;5097414;28;20020;-78
2022/07/01 04:39:04;;;;;;;13.80;8.77;;;640.40;2432.00;;;;;;5074330;28;20028;-78
2022/07/01 04:44:16;;;;;;;15.10;8.13;;;640.50;2432.00;;;;;;5092796;28;20047;-78
2022/07/01 04:46:41;;;;;;;15.15;7.18;;;640.60;2432.00;;;;;;5093809;28;20111;-78
2022/07/01 04:49:07;;;;;;;12.30;8.10;;;640.80;2432.00;;;;;;5072382;28;20051;-78
2022/07/01 04:51:34;;;;;;;15.52;7.57;;;665.60;2432.00;;;;;;5081513;28;20359;-77
2022/07/01 04:54:05;;;;;;;14.05;7.60;;;665.70;2432.00;;;;;;5092671;28;20019;-77
2022/07/01 04:56:32;;;;;;;12.45;7.72;;;665.80;2432.00;;;;;;5092513;28;20016;-77
2022/07/01 04:58:58;;;;;;;16.17;7.88;;;666.00;2432.00;;;;;;5074334;28;20485;-77
2022/07/01 05:01:24;;;;;;;12.63;7.35;;;666.00;2432.00;;;;;;5094332;28;20031;-76
2022/07/01 05:03:50;;;;;;;21.00;8.00;;;666.10;2432.00;;;;;;5108071;28;20107;-77
2022/07/01 05:06:16;;;;;;;13.00;7.03;;;666.20;2432.00;;;;;;5080761;28;20466;-77
2022/07/01 05:08:42;;;;;;;15.05;7.03;;;666.30;2432.00;;;;;;5092548;28;20054;-78
2022/07/01 05:11:08;;;;;;;12.57;7.55;;;666.40;2432.00;;;;;;5074345;28;20355;-77
2022/07/01 05:13:33;;;;;;;16.10;7.88;;;666.40;2432.00;;;;;;5073805;28;20157;-77
2022/07/01 05:16:00;;;;;;;10.50;7.75;;;666.50;2432.00;;;;;;5092344;28;20024;-77
2022/07/01 05:23:54;;;;;;;18.42;8.18;;;691.20;2432.00;;;;;;5092468;28;20035;-78
2022/07/01 05:26:21;;;;;;;17.35;8.57;;;691.20;2432.00;;;;;;5073817;28;20024;-77
2022/07/01 05:28:47;;;;;;;14.93;8.77;;;691.30;2432.00;;;;;;5073829;28;20102;-77
2022/07/01 05:31:13;;;;;;;12.23;8.23;;;691.40;2432.00;;;;;;5092174;28;20024;-77
2022/07/01 05:33:39;;;;;;;15.82;8.52;;;691.60;2432.00;;;;;;5091819;28;20450;-77
2022/07/01 05:36:05;;;;;;;13.25;8.57;;;691.60;2406.40;;;;;;5073972;28;20024;-77
2022/07/01 05:38:31;;;;;;;20.77;7.93;;;691.80;2406.40;;;;;;5091594;28;20488;-77
2022/07/01 05:40:57;;;;;;;20.90;8.10;;;691.90;2380.80;;;;;;5092069;28;20032;-77
2022/07/01 05:43:22;;;;;;;14.73;7.80;;;692.00;2355.20;;;;;;5091499;28;20098;-77
2022/07/01 05:45:48;;;;;;;12.65;7.25;;;692.10;2304.00;;;;;;5074111;28;20481;-77
2022/07/01 05:48:14;;;;;;;23.52;8.23;;;692.10;2252.80;;;;;;5069608;28;20082;-77
2022/07/01 05:50:40;;;;;;;15.57;8.15;;;716.80;2304.00;;;;;;5072874;28;20115;-78
2022/07/01 05:53:06;;;;;;;11.60;7.70;;;716.80;2252.80;;;;;;5072510;28;20048;-77
2022/07/01 05:55:32;;;;;;;19.38;9.65;;;716.80;2252.80;;;;;;5070774;28;20024;-78
2022/07/01 05:57:58;;;;;;;19.95;10.00;;;717.10;2201.60;;;;;;5071682;28;20414;-76
2022/07/01 06:00:23;;;;;;;18.73;11.95;;;717.10;2124.80;;;;;;5087908;28;20067;-77
2022/07/01 06:02:49;;;;;;;22.77;11.15;;;717.20;2124.80;;;;;;5088215;28;20024;-77
2022/07/01 06:05:15;;;;;;;16.80;11.48;;;717.30;2124.80;;;;;;5072417;28;20066;-77
2022/07/01 06:07:41;;;;;;;16.00;9.25;;;717.30;2150.40;;;;;;5088058;28;20023;-77
2022/07/01 06:10:10;;;;;;;18.50;9.07;;;717.50;2150.40;;;;;;5072872;28;20401;-77
2022/07/01 06:12:36;;;;;;;14.50;9.23;;;717.50;2124.80;;;;;;5086317;28;20028;-76
2022/07/01 06:15:02;;;;;;;23.05;11.05;;;717.50;2073.60;;;;;;5072210;28;20556;-78
2022/07/01 06:17:28;;;;;;;15.88;9.55;;;717.60;2073.60;;;;;;5087395;28;20024;-77
2022/07/01 06:19:54;;;;;;;19.02;10.23;;;717.70;2124.80;;;;;;5085167;28;20154;-77
2022/07/01 06:22:20;;;;;;;39.22;13.23;;;742.40;2124.80;;;;;;5069150;28;20493;-80
2022/07/01 06:24:47;;;;;;;16.65;10.05;;;742.50;2073.60;;;;;;5091600;28;20051;-78
2022/07/01 06:27:13;;;;;;;17.48;9.75;;;717.70;2022.40;;;;;;5073141;28;20020;-78
2022/07/01 06:29:39;;;;;;;27.65;10.18;;;742.60;2073.60;;;;;;5073591;28;20020;-76
2022/07/01 06:32:06;;;;;;;17.83;9.65;;;742.60;2073.60;;;;;;5092141;28;20020;-77
2022/07/01 06:34:32;;;;;;;22.33;12.63;;;742.60;2073.60;;;;;;5091716;28;20029;-78
2022/07/01 06:37:00;;;;;;;17.95;10.25;;;742.90;2073.60;;;;;;5086518;28;20115;-77
2022/07/01 06:39:26;;;;;;;22.38;12.35;;;742.90;2022.40;;;;;;5092528;28;20020;-77
2022/07/01 06:41:52;;;;;;;15.18;9.25;;;743.00;2073.60;;;;;;5073982;28;20497;-77
2022/07/01 06:44:18;;;;;;;16.30;9.15;;;743.10;2048.00;;;;;;5092181;28;20043;-77
2022/07/01 06:46:44;;;;;;;19.67;9.85;;;743.20;2022.40;;;;;;5090818;28;20039;-78
2022/07/01 06:49:10;;;;;;;23.17;10.45;;;743.20;2022.40;;;;;;5090227;28;20024;-78
2022/07/01 06:51:36;;;;;;;23.42;9.60;;;743.30;2022.40;;;;;;5094878;28;20473;-77
2022/07/01 06:54:02;;;;;;;18.35;8.48;;;768.00;2048.00;;;;;;5094503;28;20054;-77
2022/07/01 06:56:28;;;;;;;14.98;8.88;;;768.10;1996.80;;;;;;5094716;28;20020;-78
2022/07/01 06:58:54;;;;;;;13.60;8.27;;;768.30;1971.20;;;;;;5076367;28;20042;-78
2022/07/01 07:01:20;;;;;;;25.10;9.27;;;768.40;1971.20;;;;;;5076342;28;20123;-77
2022/07/01 07:03:46;;;;;;;15.40;8.23;;;768.50;1894.40;;;;;;5094523;28;20073;-78
2022/07/01 07:06:11;;;;;;;14.20;9.13;;;768.60;1868.80;;;;;;5095234;28;20024;-78
2022/07/01 07:08:38;;;;;;;16.90;8.85;;;768.70;1868.80;;;;;;5094080;28;20516;-77
2022/07/01 07:11:04;;;;;;;15.30;7.95;;;768.90;1868.80;;;;;;5076418;28;20035;-78
2022/07/01 07:13:30;;;;;;;19.20;8.57;;;793.70;1843.20;;;;;;5075886;28;20024;-79
2022/07/01 07:15:56;;;;;;;13.27;7.57;;;793.80;1843.20;;;;;;5094165;28;20024;-79
2022/07/01 07:18:22;;;;;;;19.90;8.15;;;793.80;1843.20;;;;;;5094382;28;20078;-79
2022/07/01 07:20:48;;;;;;;16.45;7.55;;;794.00;1792.00;;;;;;5076048;28;20024;-76
2022/07/01 07:23:15;;;;;;;15.15;7.45;;;794.00;1740.80;;;;;;5100228;28;20023;-77
2022/07/01 07:25:41;;;;;;;9.38;7.05;;;794.20;1740.80;;;;;;5094062;28;20043;-76
2022/07/01 07:28:07;;;;;;;9.68;6.53;;;794.30;1689.60;;;;;;5094100;28;20062;-77
2022/07/01 07:30:33;;;;;;;12.25;7.35;;;794.40;1689.60;;;;;;5093749;28;20035;-77
2022/07/01 07:32:59;;;;;;;18.45;7.25;;;794.50;1664.00;;;;;;5094042;28;20024;-77
2022/07/01 07:35:24;;;;;;;13.27;7.57;;;794.50;1638.40;;;;;;5094162;28;20069;-76
2022/07/01 07:37:50;;;;;;;12.82;7.85;;;794.50;1638.40;;;;;;5094114;28;20462;-77
2022/07/01 07:40:19;;;;;;;12.32;7.03;;;819.30;1664.00;;;;;;5093465;28;20062;-76
2022/07/01 07:42:46;;;;;;;11.70;7.93;;;819.40;1689.60;;;;;;5078098;28;20098;-77
2022/07/01 07:45:13;;;;;;;14.93;8.02;;;819.60;1715.20;;;;;;5093799;28;20055;-78
2022/07/01 07:47:43;;;;;;;10.50;7.65;;;819.60;1715.20;;;;;;5075147;28;20368;-77
2022/07/01 07:50:09;;;;;;;13.93;7.85;;;819.70;1689.60;;;;;;5080879;28;20024;-78
2022/07/01 07:52:35;;;;;;;14.23;8.15;;;819.70;1689.60;;;;;;5096493;28;20039;-78
2022/07/01 07:55:02;;;;;;;8.40;7.20;;;819.90;1715.20;;;;;;5093578;28;20024;-78
2022/07/01 07:57:27;;;;;;;12.88;6.97;;;820.10;1740.80;;;;;;5074142;28;20028;-78
2022/07/01 07:59:53;;;;;;;14.93;7.25;;;820.00;1664.00;;;;;;5093272;28;20058;-78
2022/07/01 08:02:19;;;;;;;11.95;7.93;;;820.10;1638.40;;;;;;5093363;28;20016;-78
2022/07/01 08:04:45;;;;;;;14.30;7.85;;;820.10;1664.00;;;;;;5090142;28;20047;-77
2022/07/01 08:07:11;;;;;;;12.18;9.02;;;844.80;1715.20;;;;;;5093300;28;20024;-77
2022/07/01 08:09:36;;;;;;;15.98;7.60;;;844.90;1715.20;;;;;;5066762;28;20047;-78
2022/07/01 08:12:02;;;;;;;21.25;8.50;;;845.00;1638.40;;;;;;5093312;28;20448;-78
2022/07/01 08:14:28;;;;;;;10.48;6.63;;;845.10;1638.40;;;;;;5092967;28;20028;-78
2022/07/01 08:16:54;;;;;;;12.18;6.90;;;845.10;1612.80;;;;;;5093475;28;20408;-77
2022/07/01 08:19:20;;;;;;;14.88;7.43;;;845.10;1638.40;;;;;;5093043;28;20040;-78
2022/07/01 08:21:46;;;;;;;20.85;7.35;;;845.10;1638.40;;;;;;5093145;28;20020;-78
2022/07/01 08:24:11;;;;;;;10.88;7.28;;;845.20;1612.80;;;;;;5074784;28;20031;-77
2022/07/01 08:26:37;;;;;;;11.40;7.35;;;845.30;1638.40;;;;;;5093063;28;20086;-77
2022/07/01 08:29:03;;;;;;;9.02;7.10;;;845.40;1612.80;;;;;;5084592;28;20031;-79
2022/07/01 08:31:29;;;;;;;9.50;7.55;;;845.40;1612.80;;;;;;5089445;28;20055;-79
2022/07/01 08:33:55;;;;;;;15.40;8.25;;;845.40;1612.80;;;;;;5100878;28;20035;-77
2022/07/01 08:36:21;;;;;;;14.15;8.50;;;845.40;1612.80;;;;;;5092488;28;20016;-78
2022/07/01 08:38:48;;;;;;;16.08;8.93;;;845.50;1612.80;;;;;;5092354;28;20103;-78
2022/07/01 08:41:15;;;;;;;14.10;7.60;;;845.50;1612.80;;;;;;5091723;28;20485;-78
2022/07/01 08:43:41;;;;;;;16.83;7.82;;;845.50;1587.20;;;;;;5072124;28;20078;-79
2022/07/01 08:46:07;;;;;;;12.07;7.28;;;845.70;1612.80;;;;;;5077755;28;20033;-78
2022/07/01 08:48:34;;;;;;;9.45;6.88;;;870.50;1587.20;;;;;;5093153;28;20012;-77
2022/07/01 08:51:03;;;;;;;11.27;7.20;;;870.50;1484.80;;;;;;5098081;28;20044;-76
2022/07/01 08:53:33;;;;;;;14.25;7.75;;;870.50;1510.40;;;;;;5078413;28;20047;-78
2022/07/01 08:58:57;;;;;;;18.67;8.00;;;870.70;1510.40;;;;;;5019955;28;20125;-77
2022/07/01 09:01:25;;;;;;;15.73;7.97;;;870.70;1510.40;;;;;;5014590;28;20121;-77
2022/07/01 09:03:54;;;;;;;11.05;7.53;;;870.90;1484.80;;;;;;5033576;28;20091;-78
2022/07/01 09:06:27;;;;;;;17.15;8.02;;;870.90;1459.20;;;;;;5032189;28;20811;-78
2022/07/01 09:08:53;;;;;;;13.07;7.60;;;870.90;1408.00;;;;;;5013821;28;20065;-77
2022/07/01 09:11:20;;;;;;;13.80;8.23;;;871.00;1459.20;;;;;;5029753;28;20545;-76
2022/07/01 09:14:08;;;;;;;19.27;8.40;;;871.00;1459.20;;;;;;5013075;28;20037;-76
2022/07/01 09:16:45;;;;;;;16.67;8.68;;;871.10;1433.60;;;;;;5013189;28;20033;-79
2022/07/01 09:19:13;;;;;;;13.20;7.55;;;871.30;1459.20;;;;;;5038385;28;20036;-77
2022/07/01 09:21:39;;;;;;;10.65;7.07;;;896.00;1408.00;;;;;;5031949;28;20076;-79
2022/07/01 09:24:26;;;;;;;16.02;7.85;;;871.10;1382.40;;;;;;5013207;28;20067;-80
2022/07/01 09:26:55;;;;;;;18.20;8.38;;;896.00;1382.40;;;;;;5012981;28;20381;-78
2022/07/01 09:29:31;;;;;;;19.45;7.40;;;896.00;1356.80;;;;;;5029818;28;20072;-79
2022/07/01 09:31:57;;;;;;;12.48;8.13;;;896.10;1331.20;;;;;;5029462;28;20431;-79
2022/07/01 09:34:23;;;;;;;14.13;7.47;;;896.20;1331.20;;;;;;5057416;28;20085;-79
2022/07/01 09:36:53;;;;;;;12.30;7.78;;;896.30;1356.80;;;;;;5082752;28;20025;-77
2022/07/01 09:39:19;;;;;;;11.13;7.05;;;896.60;1331.20;;;;;;5080124;28;20055;-77
2022/07/01 09:41:45;;;;;;;8.75;6.93;;;896.70;1305.60;;;;;;5088836;28;20020;-78
2022/07/01 09:44:11;;;;;;;11.85;7.53;;;896.70;1305.60;;;;;;5072796;28;20563;-78
2022/07/01 09:46:36;;;;;;;9.50;7.45;;;896.90;1331.20;;;;;;5073760;28;20040;-76
2022/07/01 09:49:03;;;;;;;15.35;7.15;;;896.90;1305.60;;;;;;5093278;28;20402;-77
2022/07/01 09:51:29;;;;;;;9.88;6.88;;;896.90;1280.00;;;;;;5104392;28;20482;-77
2022/07/01 09:53:58;;;;;;;11.25;6.88;;;921.90;1305.60;;;;;;5073579;28;20401;-77
2022/07/01 09:56:24;;;;;;;12.48;7.22;;;922.00;1280.00;;;;;;5073715;28;20024;-78
2022/07/01 09:58:51;;;;;;;17.50;7.28;;;922.00;1280.00;;;;;;5073539;28;20043;-78
2022/07/01 10:01:17;;;;;;;11.68;6.93;;;922.30;1280.00;;;;;;5073335;28;20027;-78
2022/07/01 10:03:43;;;;;;;15.00;7.25;;;922.30;1280.00;;;;;;5092051;28;20016;-79
2022/07/01 10:06:27;;;;;;;12.57;7.13;;;922.50;1254.40;;;;;;5091470;28;20016;-79
2022/07/01 10:09:14;;;;;;;15.35;7.78;;;947.30;1254.40;;;;;;5078369;28;20016;-81
2022/07/01 10:12:14;;;;;;;13.85;7.63;;;947.30;1254.40;;;;;;5063469;28;20024;-78
2022/07/01 10:14:42;;;;;;;12.93;6.70;;;947.50;1280.00;;;;;;5077579;28;20017;-80
2022/07/01 10:17:08;;;;;;;17.58;6.65;;;947.60;1203.20;;;;;;5088441;28;20032;-79
2022/07/01 10:19:34;;;;;;;13.02;7.63;;;947.50;1228.80;;;;;;5068675;28;20040;-78
2022/07/01 10:22:21;;;;;;;12.20;7.07;;;947.60;1203.20;;;;;;5083716;28;20017;-79
2022/07/01 10:24:47;;;;;;;10.65;6.78;;;947.60;1203.20;;;;;;5067961;28;20033;-79
2022/07/01 10:27:21;;;;;;;14.23;7.07;;;947.80;1203.20;;;;;;5065973;28;20111;-78
2022/07/01 10:29:47;;;;;;;12.57;6.45;;;948.00;1203.20;;;;;;5067788;28;20478;-79
2022/07/01 10:32:22;;;;;;;38.88;10.05;;;922.20;1177.60;;;;;;5062392;28;20020;-78
2022/07/01 10:34:48;;;;;;;9.60;6.30;;;948.10;1177.60;;;;;;5074668;28;20464;-81
2022/07/01 10:37:17;;;;;;;8.88;6.05;;;972.80;1203.20;;;;;;5095365;28;20016;-78
2022/07/01 10:40:00;;;;;;;12.00;6.82;;;948.10;1152.00;;;;;;5089728;28;20028;-84
2022/07/01 10:42:34;;;;;;;12.25;6.95;;;948.10;1152.00;;;;;;5088716;28;20028;-80
2022/07/01 10:45:11;;;;;;;14.57;5.57;;;948.10;1152.00;;;;;;5063706;28;20044;-79
2022/07/01 10:47:39;;;;;;;16.02;5.57;;;948.10;1100.80;;;;;;5094829;28;20026;-80
2022/07/01 10:50:11;;;;;;;8.30;5.60;;;973.00;1100.80;;;;;;5104990;28;20019;-79
2022/07/01 10:52:38;;;;;;;9.77;5.50;;;973.20;1075.20;;;;;;5071149;28;20485;-80
2022/07/01 10:55:06;;;;;;;16.33;6.38;;;973.20;1100.80;;;;;;5076696;28;20382;-82
2022/07/01 10:57:39;;;;;;;7.93;6.10;;;973.20;1100.80;;;;;;5076757;28;20496;-80
2022/07/01 11:00:05;;;;;;;13.02;6.00;;;973.20;1049.60;;;;;;5106139;28;20393;-80
2022/07/01 11:02:38;;;;;;;8.75;4.78;;;973.30;1049.60;;;;;;5069501;28;20111;-80
2022/07/01 11:05:07;;;;;;;8.02;5.97;;;973.20;1024.00;;;;;;5076350;28;20063;-78
2022/07/01 11:07:35;;;;;;;10.02;5.90;;;973.20;1049.60;;;;;;5086800;28;20036;-79
2022/07/01 11:10:03;;;;;;;11.52;5.80;;;973.20;1075.20;;;;;;5084107;28;20031;-80
2022/07/01 11:12:29;;;;;;;10.20;6.25;;;973.20;1075.20;;;;;;5064901;28;20022;-79
2022/07/01 11:14:58;;;;;;;11.27;5.85;;;973.40;1075.20;;;;;;5067173;28;20045;-81
2022/07/01 11:17:25;;;;;;;7.63;5.75;;;973.40;1075.20;;;;;;5065798;28;20032;-79
2022/07/01 11:19:52;;;;;;;9.63;5.25;;;973.40;1075.20;;;;;;5062642;28;20036;-83
2022/07/01 11:22:24;;;;;;;12.57;4.78;;;973.40;1024.00;;;;;;5076152;28;20054;-80
2022/07/01 11:24:58;;;;;;;7.32;5.35;;;973.60;1024.00;;;;;;5077210;28;20406;-80
2022/07/01 11:27:27;;;;;;;9.82;5.20;;;973.40;998.40;;;;;;5087480;28;20497;-79
2022/07/01 11:29:54;;;;;;;10.48;5.18;;;973.40;972.80;;;;;;5073947;28;20053;-80
2022/07/01 11:32:32;;;;;;;14.10;6.38;;;973.40;972.80;;;;;;5066477;28;20025;-80
2022/07/01 11:34:59;;;;;;;15.32;5.65;;;973.40;1024.00;;;;;;5067279;28;20162;-81
2022/07/01 11:40:17;;;;;;;16.83;5.80;;;973.70;972.80;;;;;;5083304;28;20089;-79
2022/07/01 11:42:43;;;;;;;8.50;4.75;;;973.70;947.20;;;;;;5072218;28;20122;-81
2022/07/01 11:45:21;;;;;;;6.88;4.07;;;973.70;947.20;;;;;;5083816;28;20044;-79
2022/07/01 11:47:47;;;;;;;6.65;3.90;;;973.70;896.00;;;;;;5071915;28;20458;-79
2022/07/01 11:50:15;;;;;;;11.48;4.35;;;998.50;921.60;;;;;;5064875;28;20036;-79
2022/07/01 11:52:41;;;;;;;10.27;4.75;;;998.50;947.20;;;;;;5067157;28;20024;-77
2022/07/01 11:55:09;;;;;;;7.60;4.72;;;998.50;972.80;;;;;;5082135;28;20020;-78
2022/07/01 11:57:34;;;;;;;11.68;4.72;;;998.50;947.20;;;;;;5065155;28;20480;-78
2022/07/01 12:00:10;;;;;;;10.20;4.90;;;998.50;947.20;;;;;;5065824;28;20040;-78
2022/07/01 12:02:36;;;;;;;10.30;4.43;;;998.60;947.20;;;;;;5083048;28;20016;-79
2022/07/01 12:05:02;;;;;;;9.45;4.78;;;998.80;921.60;;;;;;5063730;28;20115;-80
2022/07/01 12:07:28;;;;;;;11.25;4.90;;;998.70;921.60;;;;;;5081565;28;20021;-79
2022/07/01 12:09:54;;;;;;;5.72;4.82;;;998.80;947.20;;;;;;5066513;28;20024;-79
2022/07/01 12:12:25;;;;;;;10.48;4.95;;;998.60;998.40;;;;;;5069326;28;20026;-79
2022/07/01 12:14:59;;;;;;;7.75;4.90;;;998.70;998.40;;;;;;5081742;28;20038;-79
2022/07/01 12:17:27;;;;;;;8.20;4.63;;;998.80;998.40;;;;;;5081564;28;20028;-79
2022/07/01 12:19:54;;;;;;;12.20;5.03;;;998.70;972.80;;;;;;5065317;28;20032;-80
2022/07/01 12:22:26;;;;;;;7.90;4.50;;;998.80;947.20;;;;;;5066132;28;20028;-78
2022/07/01 12:25:04;;;;;;;8.18;4.25;;;998.90;947.20;;;;;;5081523;28;20500;-79
2022/07/01 12:27:33;;;;;;;8.23;4.43;;;998.80;921.60;;;;;;5081582;28;20512;-79
2022/07/01 12:29:59;;;;;;;9.25;4.80;;;998.90;921.60;;;;;;5063430;28;20077;-79